sensor_id;sensor_type;location;lat;lon;timestamp;P1;durP1;ratioP1;P2;durP2;ratioP2
24897;SDS011;12957;49.434;8.684;2023-02-21T00:01:31;6.13;;;3.17;;
24897;SDS011;12957;49.434;8.684;2023-02-21T00:04:15;9.77;;;3.07;;
24897;SDS011;12957;49.434;8.684;2023-02-21T00:06:59;12.87;;;3.63;;
24897;SDS011;12957;49.434;8.684;2023-02-21T00:09:43;6.83;;;3.30;;
24897;SDS011;12957;49.434;8.684;2023-02-21T00:12:28;13.43;;;3.20;;
24897;SDS011;12957;49.434;8.684;2023-02-21T00:15:12;6.78;;;3.05;;
24897;SDS011;12957;49.434;8.684;2023-02-21T00:17:56;7.57;;;3.03;;
24897;SDS011;12957;49.434;8.684;2023-02-21T00:20:40;8.03;;;3.30;;
24897;SDS011;12957;49.434;8.684;2023-02-21T00:23:25;7.07;;;3.37;;
24897;SDS011;12957;49.434;8.684;2023-02-21T00:26:09;7.60;;;3.03;;
24897;SDS011;12957;49.434;8.684;2023-02-21T00:28:53;7.65;;;3.28;;
24897;SDS011;12957;49.434;8.684;2023-02-21T00:31:38;9.98;;;3.10;;
24897;SDS011;12957;49.434;8.684;2023-02-21T00:34:22;4.95;;;2.83;;
24897;SDS011;12957;49.434;8.684;2023-02-21T00:37:06;8.50;;;3.40;;
24897;SDS011;12957;49.434;8.684;2023-02-21T00:39:51;8.07;;;3.03;;
24897;SDS011;12957;49.434;8.684;2023-02-21T00:42:35;8.77;;;3.00;;
24897;SDS011;12957;49.434;8.684;2023-02-21T00:45:19;8.97;;;3.07;;
24897;SDS011;12957;49.434;8.684;2023-02-21T00:48:03;12.73;;;3.73;;
24897;SDS011;12957;49.434;8.684;2023-02-21T00:50:47;6.45;;;3.65;;
24897;SDS011;12957;49.434;8.684;2023-02-21T00:53:32;9.77;;;3.45;;
24897;SDS011;12957;49.434;8.684;2023-02-21T00:56:16;8.93;;;3.33;;
24897;SDS011;12957;49.434;8.684;2023-02-21T00:59:00;7.57;;;3.07;;
24897;SDS011;12957;49.434;8.684;2023-02-21T01:01:44;5.17;;;2.90;;
24897;SDS011;12957;49.434;8.684;2023-02-21T01:04:28;11.87;;;3.37;;
24897;SDS011;12957;49.434;8.684;2023-02-21T01:07:12;7.77;;;3.63;;
24897;SDS011;12957;49.434;8.684;2023-02-21T01:09:56;13.27;;;3.33;;
24897;SDS011;12957;49.434;8.684;2023-02-21T01:12:40;10.70;;;3.97;;
24897;SDS011;12957;49.434;8.684;2023-02-21T01:15:24;8.90;;;3.57;;
24897;SDS011;12957;49.434;8.684;2023-02-21T01:18:08;10.80;;;3.73;;
24897;SDS011;12957;49.434;8.684;2023-02-21T01:20:53;13.87;;;3.37;;
24897;SDS011;12957;49.434;8.684;2023-02-21T01:23:37;11.03;;;3.63;;
24897;SDS011;12957;49.434;8.684;2023-02-21T01:26:21;6.10;;;3.53;;
24897;SDS011;12957;49.434;8.684;2023-02-21T01:29:05;8.53;;;4.03;;
24897;SDS011;12957;49.434;8.684;2023-02-21T01:31:50;8.03;;;3.47;;
24897;SDS011;12957;49.434;8.684;2023-02-21T01:34:34;11.40;;;3.83;;
24897;SDS011;12957;49.434;8.684;2023-02-21T01:37:18;8.20;;;3.53;;
24897;SDS011;12957;49.434;8.684;2023-02-21T01:40:03;5.05;;;3.78;;
24897;SDS011;12957;49.434;8.684;2023-02-21T01:42:47;7.30;;;3.97;;
24897;SDS011;12957;49.434;8.684;2023-02-21T01:45:40;4.97;;;3.30;;
24897;SDS011;12957;49.434;8.684;2023-02-21T01:48:26;11.73;;;4.10;;
24897;SDS011;12957;49.434;8.684;2023-02-21T01:51:12;7.80;;;4.33;;
24897;SDS011;12957;49.434;8.684;2023-02-21T01:54:04;10.83;;;4.23;;
24897;SDS011;12957;49.434;8.684;2023-02-21T01:56:50;8.47;;;4.10;;
24897;SDS011;12957;49.434;8.684;2023-02-21T01:59:34;9.57;;;3.90;;
24897;SDS011;12957;49.434;8.684;2023-02-21T02:05:23;15.80;;;4.37;;
24897;SDS011;12957;49.434;8.684;2023-02-21T02:08:07;11.63;;;4.25;;
24897;SDS011;12957;49.434;8.684;2023-02-21T02:11:07;7.77;;;3.73;;
24897;SDS011;12957;49.434;8.684;2023-02-21T02:14:02;11.47;;;4.13;;
24897;SDS011;12957;49.434;8.684;2023-02-21T02:16:41;10.90;;;3.90;;
24897;SDS011;12957;49.434;8.684;2023-02-21T02:19:21;11.80;;;4.20;;
24897;SDS011;12957;49.434;8.684;2023-02-21T02:30:00;6.90;;;3.43;;
24897;SDS011;12957;49.434;8.684;2023-02-21T02:35:34;8.00;;;4.03;;
24897;SDS011;12957;49.434;8.684;2023-02-21T02:44:14;11.18;;;3.67;;
24897;SDS011;12957;49.434;8.684;2023-02-21T02:46:22;11.20;;;4.00;;
24897;SDS011;12957;49.434;8.684;2023-02-21T02:51:36;13.80;;;4.30;;
24897;SDS011;12957;49.434;8.684;2023-02-21T02:54:02;8.10;;;3.83;;
24897;SDS011;12957;49.434;8.684;2023-02-21T02:56:28;8.63;;;3.63;;
24897;SDS011;12957;49.434;8.684;2023-02-21T02:58:55;15.03;;;4.57;;
24897;SDS011;12957;49.434;8.684;2023-02-21T03:09:56;10.30;;;3.93;;
24897;SDS011;12957;49.434;8.684;2023-02-21T03:15:36;7.20;;;4.13;;
24897;SDS011;12957;49.434;8.684;2023-02-21T03:20:49;9.77;;;4.30;;
24897;SDS011;12957;49.434;8.684;2023-02-21T03:23:18;11.33;;;4.53;;
24897;SDS011;12957;49.434;8.684;2023-02-21T03:25:44;7.87;;;4.47;;
24897;SDS011;12957;49.434;8.684;2023-02-21T03:28:10;8.87;;;4.30;;
24897;SDS011;12957;49.434;8.684;2023-02-21T03:30:36;9.67;;;4.90;;
24897;SDS011;12957;49.434;8.684;2023-02-21T03:33:03;11.47;;;4.80;;
24897;SDS011;12957;49.434;8.684;2023-02-21T03:35:29;9.17;;;4.33;;
24897;SDS011;12957;49.434;8.684;2023-02-21T03:37:56;11.70;;;4.40;;
24897;SDS011;12957;49.434;8.684;2023-02-21T03:40:23;8.07;;;4.90;;
24897;SDS011;12957;49.434;8.684;2023-02-21T03:42:51;12.47;;;4.33;;
24897;SDS011;12957;49.434;8.684;2023-02-21T03:45:17;11.73;;;4.57;;
24897;SDS011;12957;49.434;8.684;2023-02-21T03:47:42;8.03;;;4.13;;
24897;SDS011;12957;49.434;8.684;2023-02-21T03:50:08;12.17;;;4.50;;
24897;SDS011;12957;49.434;8.684;2023-02-21T03:52:33;9.27;;;4.50;;
24897;SDS011;12957;49.434;8.684;2023-02-21T03:54:59;11.20;;;5.10;;
24897;SDS011;12957;49.434;8.684;2023-02-21T03:57:24;14.87;;;4.80;;
24897;SDS011;12957;49.434;8.684;2023-02-21T03:59:50;12.50;;;4.73;;
24897;SDS011;12957;49.434;8.684;2023-02-21T04:02:15;15.17;;;5.03;;
24897;SDS011;12957;49.434;8.684;2023-02-21T04:04:41;10.43;;;4.67;;
24897;SDS011;12957;49.434;8.684;2023-02-21T04:07:07;12.80;;;5.37;;
24897;SDS011;12957;49.434;8.684;2023-02-21T04:09:32;12.37;;;4.77;;
24897;SDS011;12957;49.434;8.684;2023-02-21T04:11:58;7.50;;;4.63;;
24897;SDS011;12957;49.434;8.684;2023-02-21T04:14:23;11.90;;;4.60;;
24897;SDS011;12957;49.434;8.684;2023-02-21T04:16:49;8.33;;;5.00;;
24897;SDS011;12957;49.434;8.684;2023-02-21T04:19:15;14.27;;;4.73;;
24897;SDS011;12957;49.434;8.684;2023-02-21T04:21:41;9.73;;;5.10;;
24897;SDS011;12957;49.434;8.684;2023-02-21T04:24:06;8.23;;;4.87;;
24897;SDS011;12957;49.434;8.684;2023-02-21T04:26:32;13.00;;;5.10;;
24897;SDS011;12957;49.434;8.684;2023-02-21T04:28:58;11.63;;;4.70;;
24897;SDS011;12957;49.434;8.684;2023-02-21T04:31:24;11.40;;;5.13;;
24897;SDS011;12957;49.434;8.684;2023-02-21T04:33:50;8.60;;;5.20;;
24897;SDS011;12957;49.434;8.684;2023-02-21T04:36:15;7.83;;;4.87;;
24897;SDS011;12957;49.434;8.684;2023-02-21T04:38:41;13.20;;;5.77;;
24897;SDS011;12957;49.434;8.684;2023-02-21T04:41:06;13.77;;;5.97;;
24897;SDS011;12957;49.434;8.684;2023-02-21T04:43:32;8.40;;;5.27;;
24897;SDS011;12957;49.434;8.684;2023-02-21T04:45:57;13.77;;;5.67;;
24897;SDS011;12957;49.434;8.684;2023-02-21T04:48:23;15.40;;;5.97;;
24897;SDS011;12957;49.434;8.684;2023-02-21T04:50:48;9.98;;;5.82;;
24897;SDS011;12957;49.434;8.684;2023-02-21T04:53:14;8.77;;;5.67;;
24897;SDS011;12957;49.434;8.684;2023-02-21T04:55:40;11.33;;;5.60;;
24897;SDS011;12957;49.434;8.684;2023-02-21T04:58:05;13.80;;;5.80;;
24897;SDS011;12957;49.434;8.684;2023-02-21T05:00:31;11.40;;;5.57;;
24897;SDS011;12957;49.434;8.684;2023-02-21T05:02:56;14.37;;;5.03;;
24897;SDS011;12957;49.434;8.684;2023-02-21T05:05:22;14.37;;;6.70;;
24897;SDS011;12957;49.434;8.684;2023-02-21T05:07:47;16.10;;;6.70;;
24897;SDS011;12957;49.434;8.684;2023-02-21T05:10:13;12.70;;;6.00;;
24897;SDS011;12957;49.434;8.684;2023-02-21T05:12:39;12.33;;;5.77;;
24897;SDS011;12957;49.434;8.684;2023-02-21T05:15:05;10.17;;;5.90;;
24897;SDS011;12957;49.434;8.684;2023-02-21T05:17:31;20.03;;;6.07;;
24897;SDS011;12957;49.434;8.684;2023-02-21T05:19:57;12.90;;;6.00;;
24897;SDS011;12957;49.434;8.684;2023-02-21T05:22:22;12.63;;;5.83;;
24897;SDS011;12957;49.434;8.684;2023-02-21T05:24:48;16.17;;;6.73;;
24897;SDS011;12957;49.434;8.684;2023-02-21T05:27:17;11.33;;;6.13;;
24897;SDS011;12957;49.434;8.684;2023-02-21T05:29:51;12.18;;;6.80;;
24897;SDS011;12957;49.434;8.684;2023-02-21T05:32:18;15.47;;;6.40;;
24897;SDS011;12957;49.434;8.684;2023-02-21T05:34:45;15.87;;;6.07;;
24897;SDS011;12957;49.434;8.684;2023-02-21T05:37:12;13.33;;;6.03;;
24897;SDS011;12957;49.434;8.684;2023-02-21T05:39:39;18.97;;;5.83;;
24897;SDS011;12957;49.434;8.684;2023-02-21T05:42:04;14.63;;;6.40;;
24897;SDS011;12957;49.434;8.684;2023-02-21T05:44:30;17.70;;;6.57;;
24897;SDS011;12957;49.434;8.684;2023-02-21T05:46:55;14.10;;;5.82;;
24897;SDS011;12957;49.434;8.684;2023-02-21T05:49:21;14.93;;;5.90;;
24897;SDS011;12957;49.434;8.684;2023-02-21T05:51:46;17.97;;;6.13;;
24897;SDS011;12957;49.434;8.684;2023-02-21T05:54:14;13.77;;;6.27;;
24897;SDS011;12957;49.434;8.684;2023-02-21T05:56:41;12.90;;;5.93;;
24897;SDS011;12957;49.434;8.684;2023-02-21T05:59:08;16.30;;;6.10;;
24897;SDS011;12957;49.434;8.684;2023-02-21T06:01:33;12.43;;;6.83;;
24897;SDS011;12957;49.434;8.684;2023-02-21T06:03:59;16.00;;;6.53;;
24897;SDS011;12957;49.434;8.684;2023-02-21T06:06:25;20.00;;;6.83;;
24897;SDS011;12957;49.434;8.684;2023-02-21T06:08:50;15.47;;;7.23;;
24897;SDS011;12957;49.434;8.684;2023-02-21T06:11:21;15.73;;;6.90;;
24897;SDS011;12957;49.434;8.684;2023-02-21T06:13:49;16.27;;;7.37;;
24897;SDS011;12957;49.434;8.684;2023-02-21T06:16:15;17.70;;;7.17;;
24897;SDS011;12957;49.434;8.684;2023-02-21T06:18:41;18.67;;;6.87;;
24897;SDS011;12957;49.434;8.684;2023-02-21T06:21:06;15.83;;;7.27;;
24897;SDS011;12957;49.434;8.684;2023-02-21T06:23:32;19.93;;;7.63;;
24897;SDS011;12957;49.434;8.684;2023-02-21T06:25:57;15.07;;;7.43;;
24897;SDS011;12957;49.434;8.684;2023-02-21T06:28:26;16.47;;;7.90;;
24897;SDS011;12957;49.434;8.684;2023-02-21T06:30:55;19.60;;;7.63;;
24897;SDS011;12957;49.434;8.684;2023-02-21T06:33:21;13.80;;;7.47;;
24897;SDS011;12957;49.434;8.684;2023-02-21T06:35:46;19.67;;;8.43;;
24897;SDS011;12957;49.434;8.684;2023-02-21T06:38:12;13.70;;;7.63;;
24897;SDS011;12957;49.434;8.684;2023-02-21T06:40:37;24.50;;;8.70;;
24897;SDS011;12957;49.434;8.684;2023-02-21T06:43:03;16.40;;;8.27;;
24897;SDS011;12957;49.434;8.684;2023-02-21T06:45:28;15.00;;;8.30;;
24897;SDS011;12957;49.434;8.684;2023-02-21T06:47:54;16.90;;;7.97;;
24897;SDS011;12957;49.434;8.684;2023-02-21T06:50:19;17.93;;;8.43;;
24897;SDS011;12957;49.434;8.684;2023-02-21T06:52:45;15.17;;;8.10;;
24897;SDS011;12957;49.434;8.684;2023-02-21T06:55:10;16.13;;;8.33;;
24897;SDS011;12957;49.434;8.684;2023-02-21T06:57:36;12.90;;;7.83;;
24897;SDS011;12957;49.434;8.684;2023-02-21T07:00:02;17.17;;;8.40;;
24897;SDS011;12957;49.434;8.684;2023-02-21T07:02:28;18.80;;;7.88;;
24897;SDS011;12957;49.434;8.684;2023-02-21T07:04:54;22.27;;;8.20;;
24897;SDS011;12957;49.434;8.684;2023-02-21T07:07:19;16.73;;;7.97;;
24897;SDS011;12957;49.434;8.684;2023-02-21T07:09:45;18.07;;;8.10;;
24897;SDS011;12957;49.434;8.684;2023-02-21T07:12:10;13.73;;;8.03;;
24897;SDS011;12957;49.434;8.684;2023-02-21T07:14:36;21.30;;;8.43;;
24897;SDS011;12957;49.434;8.684;2023-02-21T07:17:01;17.50;;;8.27;;
24897;SDS011;12957;49.434;8.684;2023-02-21T07:19:27;17.27;;;8.20;;
24897;SDS011;12957;49.434;8.684;2023-02-21T07:21:52;14.13;;;8.37;;
24897;SDS011;12957;49.434;8.684;2023-02-21T07:24:18;12.80;;;8.37;;
24897;SDS011;12957;49.434;8.684;2023-02-21T07:26:43;17.73;;;8.47;;
24897;SDS011;12957;49.434;8.684;2023-02-21T07:29:09;18.23;;;8.67;;
24897;SDS011;12957;49.434;8.684;2023-02-21T07:31:34;15.47;;;8.00;;
24897;SDS011;12957;49.434;8.684;2023-02-21T07:34:00;16.10;;;8.00;;
24897;SDS011;12957;49.434;8.684;2023-02-21T07:36:25;13.87;;;8.00;;
24897;SDS011;12957;49.434;8.684;2023-02-21T07:38:51;16.87;;;8.37;;
24897;SDS011;12957;49.434;8.684;2023-02-21T07:41:16;18.03;;;8.50;;
24897;SDS011;12957;49.434;8.684;2023-02-21T07:43:42;18.20;;;7.87;;
24897;SDS011;12957;49.434;8.684;2023-02-21T07:46:11;12.18;;;6.70;;
24897;SDS011;12957;49.434;8.684;2023-02-21T07:48:37;14.80;;;7.30;;
24897;SDS011;12957;49.434;8.684;2023-02-21T07:51:03;12.82;;;6.75;;
24897;SDS011;12957;49.434;8.684;2023-02-21T07:53:28;13.35;;;6.32;;
24897;SDS011;12957;49.434;8.684;2023-02-21T07:55:54;19.02;;;6.75;;
24897;SDS011;12957;49.434;8.684;2023-02-21T07:58:19;12.57;;;6.63;;
24897;SDS011;12957;49.434;8.684;2023-02-21T08:00:45;9.55;;;6.10;;
24897;SDS011;12957;49.434;8.684;2023-02-21T08:03:11;19.45;;;7.10;;
24897;SDS011;12957;49.434;8.684;2023-02-21T08:05:37;10.77;;;7.00;;
24897;SDS011;12957;49.434;8.684;2023-02-21T08:08:05;11.38;;;6.88;;
24897;SDS011;12957;49.434;8.684;2023-02-21T08:10:34;13.98;;;6.97;;
24897;SDS011;12957;49.434;8.684;2023-02-21T08:12:59;14.68;;;6.22;;
24897;SDS011;12957;49.434;8.684;2023-02-21T08:15:25;12.88;;;6.63;;
24897;SDS011;12957;49.434;8.684;2023-02-21T08:17:50;10.18;;;6.47;;
24897;SDS011;12957;49.434;8.684;2023-02-21T08:20:16;10.77;;;6.88;;
24897;SDS011;12957;49.434;8.684;2023-02-21T08:22:42;12.48;;;7.43;;
24897;SDS011;12957;49.434;8.684;2023-02-21T08:25:09;13.18;;;7.43;;
24897;SDS011;12957;49.434;8.684;2023-02-21T08:27:37;15.95;;;8.48;;
24897;SDS011;12957;49.434;8.684;2023-02-21T08:30:03;13.00;;;8.25;;
24897;SDS011;12957;49.434;8.684;2023-02-21T08:32:29;15.73;;;8.35;;
24897;SDS011;12957;49.434;8.684;2023-02-21T08:34:54;12.77;;;7.30;;
24897;SDS011;12957;49.434;8.684;2023-02-21T08:37:20;13.93;;;6.53;;
24897;SDS011;12957;49.434;8.684;2023-02-21T08:39:47;10.60;;;5.82;;
24897;SDS011;12957;49.434;8.684;2023-02-21T08:42:18;11.32;;;6.57;;
24897;SDS011;12957;49.434;8.684;2023-02-21T08:44:45;17.40;;;6.82;;
24897;SDS011;12957;49.434;8.684;2023-02-21T08:47:11;10.88;;;5.97;;
24897;SDS011;12957;49.434;8.684;2023-02-21T08:49:37;7.97;;;5.57;;
24897;SDS011;12957;49.434;8.684;2023-02-21T08:52:05;14.10;;;7.15;;
24897;SDS011;12957;49.434;8.684;2023-02-21T08:54:31;11.25;;;7.00;;
24897;SDS011;12957;49.434;8.684;2023-02-21T08:56:56;12.48;;;7.32;;
24897;SDS011;12957;49.434;8.684;2023-02-21T08:59:22;13.85;;;7.30;;
24897;SDS011;12957;49.434;8.684;2023-02-21T09:01:48;14.15;;;7.75;;
24897;SDS011;12957;49.434;8.684;2023-02-21T09:04:14;12.43;;;7.15;;
24897;SDS011;12957;49.434;8.684;2023-02-21T09:06:39;20.52;;;7.90;;
24897;SDS011;12957;49.434;8.684;2023-02-21T09:09:05;14.50;;;7.40;;
24897;SDS011;12957;49.434;8.684;2023-02-21T09:11:30;15.65;;;7.82;;
24897;SDS011;12957;49.434;8.684;2023-02-21T09:13:56;18.02;;;8.02;;
24897;SDS011;12957;49.434;8.684;2023-02-21T09:16:21;12.95;;;7.45;;
24897;SDS011;12957;49.434;8.684;2023-02-21T09:18:54;16.20;;;8.27;;
24897;SDS011;12957;49.434;8.684;2023-02-21T09:21:20;13.98;;;7.78;;
24897;SDS011;12957;49.434;8.684;2023-02-21T09:23:46;15.73;;;8.10;;
24897;SDS011;12957;49.434;8.684;2023-02-21T09:26:11;14.18;;;9.27;;
24897;SDS011;12957;49.434;8.684;2023-02-21T09:28:37;17.35;;;8.15;;
24897;SDS011;12957;49.434;8.684;2023-02-21T09:31:07;17.08;;;9.23;;
24897;SDS011;12957;49.434;8.684;2023-02-21T09:33:35;12.82;;;8.40;;
24897;SDS011;12957;49.434;8.684;2023-02-21T09:36:05;21.83;;;8.77;;
24897;SDS011;12957;49.434;8.684;2023-02-21T09:38:31;14.13;;;8.60;;
24897;SDS011;12957;49.434;8.684;2023-02-21T09:41:01;16.33;;;9.00;;
24897;SDS011;12957;49.434;8.684;2023-02-21T09:43:35;16.48;;;9.13;;
24897;SDS011;12957;49.434;8.684;2023-02-21T09:46:08;17.23;;;9.27;;
24897;SDS011;12957;49.434;8.684;2023-02-21T09:48:37;15.55;;;8.57;;
24897;SDS011;12957;49.434;8.684;2023-02-21T09:51:04;17.38;;;9.40;;
24897;SDS011;12957;49.434;8.684;2023-02-21T09:53:36;18.08;;;9.55;;
24897;SDS011;12957;49.434;8.684;2023-02-21T09:56:05;18.48;;;9.05;;
24897;SDS011;12957;49.434;8.684;2023-02-21T09:58:38;19.15;;;9.43;;
24897;SDS011;12957;49.434;8.684;2023-02-21T10:01:09;20.80;;;10.27;;
24897;SDS011;12957;49.434;8.684;2023-02-21T10:03:44;15.50;;;10.10;;
24897;SDS011;12957;49.434;8.684;2023-02-21T10:11:45;16.40;;;10.00;;
24897;SDS011;12957;49.434;8.684;2023-02-21T10:14:28;18.60;;;10.07;;
24897;SDS011;12957;49.434;8.684;2023-02-21T10:17:21;17.52;;;9.95;;
24897;SDS011;12957;49.434;8.684;2023-02-21T10:19:52;18.45;;;10.57;;
24897;SDS011;12957;49.434;8.684;2023-02-21T10:22:20;34.67;;;10.73;;
24897;SDS011;12957;49.434;8.684;2023-02-21T10:24:48;18.23;;;10.70;;
24897;SDS011;12957;49.434;8.684;2023-02-21T10:27:17;20.50;;;10.32;;
24897;SDS011;12957;49.434;8.684;2023-02-21T10:29:49;22.38;;;11.05;;
24897;SDS011;12957;49.434;8.684;2023-02-21T10:32:25;18.13;;;10.07;;
24897;SDS011;12957;49.434;8.684;2023-02-21T10:34:51;18.05;;;9.10;;
24897;SDS011;12957;49.434;8.684;2023-02-21T10:37:33;19.27;;;11.10;;
24897;SDS011;12957;49.434;8.684;2023-02-21T10:40:06;22.30;;;11.18;;
24897;SDS011;12957;49.434;8.684;2023-02-21T10:42:50;20.05;;;10.40;;
24897;SDS011;12957;49.434;8.684;2023-02-21T10:45:18;16.38;;;9.88;;
24897;SDS011;12957;49.434;8.684;2023-02-21T10:53:22;15.52;;;10.07;;
24897;SDS011;12957;49.434;8.684;2023-02-21T10:58:52;18.17;;;9.52;;
24897;SDS011;12957;49.434;8.684;2023-02-21T11:04:04;17.25;;;10.10;;
24897;SDS011;12957;49.434;8.684;2023-02-21T11:06:38;17.42;;;10.48;;
24897;SDS011;12957;49.434;8.684;2023-02-21T11:14:26;16.15;;;9.38;;
24897;SDS011;12957;49.434;8.684;2023-02-21T11:22:22;21.63;;;9.82;;
24897;SDS011;12957;49.434;8.684;2023-02-21T11:25:00;16.88;;;9.45;;
24897;SDS011;12957;49.434;8.684;2023-02-21T11:27:30;19.63;;;10.43;;
24897;SDS011;12957;49.434;8.684;2023-02-21T11:29:56;16.85;;;10.10;;
24897;SDS011;12957;49.434;8.684;2023-02-21T11:32:36;18.42;;;9.68;;
24897;SDS011;12957;49.434;8.684;2023-02-21T11:35:07;19.50;;;10.18;;
24897;SDS011;12957;49.434;8.684;2023-02-21T11:37:46;19.45;;;10.10;;
24897;SDS011;12957;49.434;8.684;2023-02-21T11:40:40;18.98;;;9.70;;
24897;SDS011;12957;49.434;8.684;2023-02-21T11:48:28;17.60;;;9.07;;
24897;SDS011;12957;49.434;8.684;2023-02-21T11:50:57;16.27;;;8.40;;
24897;SDS011;12957;49.434;8.684;2023-02-21T11:53:41;21.40;;;10.68;;
24897;SDS011;12957;49.434;8.684;2023-02-21T11:56:18;17.65;;;8.02;;
24897;SDS011;12957;49.434;8.684;2023-02-21T11:58:55;13.38;;;7.78;;
24897;SDS011;12957;49.434;8.684;2023-02-21T12:01:24;15.27;;;8.35;;
24897;SDS011;12957;49.434;8.684;2023-02-21T12:09:55;11.75;;;7.53;;
24897;SDS011;12957;49.434;8.684;2023-02-21T12:12:32;12.63;;;7.35;;
24897;SDS011;12957;49.434;8.684;2023-02-21T12:15:16;11.88;;;7.47;;
24897;SDS011;12957;49.434;8.684;2023-02-21T12:18:14;13.65;;;7.43;;
24897;SDS011;12957;49.434;8.684;2023-02-21T12:23:52;14.25;;;7.22;;
24897;SDS011;12957;49.434;8.684;2023-02-21T12:26:42;13.82;;;7.05;;
24897;SDS011;12957;49.434;8.684;2023-02-21T12:29:30;11.63;;;7.30;;
24897;SDS011;12957;49.434;8.684;2023-02-21T12:42:51;10.85;;;6.10;;
24897;SDS011;12957;49.434;8.684;2023-02-21T12:48:45;11.18;;;5.65;;
24897;SDS011;12957;49.434;8.684;2023-02-21T12:51:15;11.48;;;5.40;;
24897;SDS011;12957;49.434;8.684;2023-02-21T12:53:46;11.27;;;5.65;;
24897;SDS011;12957;49.434;8.684;2023-02-21T12:58:47;8.98;;;5.75;;
24897;SDS011;12957;49.434;8.684;2023-02-21T13:09:35;10.07;;;5.03;;
24897;SDS011;12957;49.434;8.684;2023-02-21T13:12:13;8.15;;;5.05;;
24897;SDS011;12957;49.434;8.684;2023-02-21T13:17:15;10.27;;;5.47;;
24897;SDS011;12957;49.434;8.684;2023-02-21T13:19:42;10.10;;;5.43;;
24897;SDS011;12957;49.434;8.684;2023-02-21T13:25:41;10.02;;;4.85;;
24897;SDS011;12957;49.434;8.684;2023-02-21T13:28:15;6.50;;;4.63;;
24897;SDS011;12957;49.434;8.684;2023-02-21T13:30:48;9.65;;;4.93;;
24897;SDS011;12957;49.434;8.684;2023-02-21T13:33:58;10.23;;;5.20;;
24897;SDS011;12957;49.434;8.684;2023-02-21T13:36:19;13.45;;;5.40;;
24897;SDS011;12957;49.434;8.684;2023-02-21T13:41:37;8.48;;;4.65;;
24897;SDS011;12957;49.434;8.684;2023-02-21T13:44:10;7.40;;;4.60;;
24897;SDS011;12957;49.434;8.684;2023-02-21T13:57:36;9.80;;;4.90;;
24897;SDS011;12957;49.434;8.684;2023-02-21T14:08:23;6.93;;;2.97;;
24897;SDS011;12957;49.434;8.684;2023-02-21T14:15:58;6.43;;;3.00;;
24897;SDS011;12957;49.434;8.684;2023-02-21T14:18:42;8.05;;;3.53;;
24897;SDS011;12957;49.434;8.684;2023-02-21T14:21:13;7.10;;;3.00;;
24897;SDS011;12957;49.434;8.684;2023-02-21T14:23:41;11.85;;;3.13;;
24897;SDS011;12957;49.434;8.684;2023-02-21T14:26:42;5.43;;;3.05;;
24897;SDS011;12957;49.434;8.684;2023-02-21T14:29:15;7.10;;;2.97;;
24897;SDS011;12957;49.434;8.684;2023-02-21T14:39:50;6.40;;;3.75;;
24897;SDS011;12957;49.434;8.684;2023-02-21T14:53:20;6.30;;;2.65;;
24897;SDS011;12957;49.434;8.684;2023-02-21T14:58:48;7.28;;;2.80;;
24897;SDS011;12957;49.434;8.684;2023-02-21T15:01:40;7.65;;;2.50;;
24897;SDS011;12957;49.434;8.684;2023-02-21T15:09:40;5.07;;;2.78;;
24897;SDS011;12957;49.434;8.684;2023-02-21T15:12:12;5.55;;;2.47;;
24897;SDS011;12957;49.434;8.684;2023-02-21T15:14:40;3.97;;;2.40;;
24897;SDS011;12957;49.434;8.684;2023-02-21T15:17:15;6.72;;;2.80;;
24897;SDS011;12957;49.434;8.684;2023-02-21T15:19:42;6.38;;;2.70;;
24897;SDS011;12957;49.434;8.684;2023-02-21T15:22:24;3.40;;;2.55;;
24897;SDS011;12957;49.434;8.684;2023-02-21T15:27:35;4.68;;;2.63;;
24897;SDS011;12957;49.434;8.684;2023-02-21T15:32:40;8.10;;;3.47;;
24897;SDS011;12957;49.434;8.684;2023-02-21T15:35:06;3.92;;;2.35;;
24897;SDS011;12957;49.434;8.684;2023-02-21T15:37:37;6.10;;;2.40;;
24897;SDS011;12957;49.434;8.684;2023-02-21T15:40:05;3.30;;;2.30;;
24897;SDS011;12957;49.434;8.684;2023-02-21T15:42:38;6.63;;;2.13;;
24897;SDS011;12957;49.434;8.684;2023-02-21T15:45:05;2.42;;;2.20;;
24897;SDS011;12957;49.434;8.684;2023-02-21T15:47:51;3.83;;;2.33;;
24897;SDS011;12957;49.434;8.684;2023-02-21T15:52:55;5.32;;;2.00;;
24897;SDS011;12957;49.434;8.684;2023-02-21T15:58:00;3.08;;;1.95;;
24897;SDS011;12957;49.434;8.684;2023-02-21T16:01:06;5.13;;;1.90;;
24897;SDS011;12957;49.434;8.684;2023-02-21T16:03:41;4.00;;;1.70;;
24897;SDS011;12957;49.434;8.684;2023-02-21T16:06:28;2.72;;;2.00;;
24897;SDS011;12957;49.434;8.684;2023-02-21T16:11:53;3.05;;;1.70;;
24897;SDS011;12957;49.434;8.684;2023-02-21T16:15:00;7.32;;;1.75;;
24897;SDS011;12957;49.434;8.684;2023-02-21T16:17:50;1.92;;;1.70;;
24897;SDS011;12957;49.434;8.684;2023-02-21T16:20:28;2.22;;;1.70;;
24897;SDS011;12957;49.434;8.684;2023-02-21T16:23:12;3.05;;;1.60;;
24897;SDS011;12957;49.434;8.684;2023-02-21T16:28:36;1.77;;;1.33;;
24897;SDS011;12957;49.434;8.684;2023-02-21T16:31:05;1.98;;;1.25;;
24897;SDS011;12957;49.434;8.684;2023-02-21T16:33:31;1.70;;;1.60;;
24897;SDS011;12957;49.434;8.684;2023-02-21T16:35:58;6.93;;;1.60;;
24897;SDS011;12957;49.434;8.684;2023-02-21T16:38:24;2.40;;;1.50;;
24897;SDS011;12957;49.434;8.684;2023-02-21T16:40:52;1.95;;;1.52;;
24897;SDS011;12957;49.434;8.684;2023-02-21T16:43:19;3.90;;;1.50;;
24897;SDS011;12957;49.434;8.684;2023-02-21T16:46:08;4.40;;;1.40;;
24897;SDS011;12957;49.434;8.684;2023-02-21T16:48:34;2.80;;;1.30;;
24897;SDS011;12957;49.434;8.684;2023-02-21T16:51:00;2.13;;;1.30;;
24897;SDS011;12957;49.434;8.684;2023-02-21T16:53:27;7.10;;;1.52;;
24897;SDS011;12957;49.434;8.684;2023-02-21T16:55:53;2.60;;;1.50;;
24897;SDS011;12957;49.434;8.684;2023-02-21T16:58:26;3.67;;;1.50;;
24897;SDS011;12957;49.434;8.684;2023-02-21T17:00:54;1.50;;;1.40;;
24897;SDS011;12957;49.434;8.684;2023-02-21T17:03:20;2.75;;;1.90;;
24897;SDS011;12957;49.434;8.684;2023-02-21T17:05:46;4.00;;;1.63;;
24897;SDS011;12957;49.434;8.684;2023-02-21T17:08:12;1.60;;;1.50;;
24897;SDS011;12957;49.434;8.684;2023-02-21T17:10:38;2.83;;;1.63;;
24897;SDS011;12957;49.434;8.684;2023-02-21T17:13:03;2.70;;;1.73;;
24897;SDS011;12957;49.434;8.684;2023-02-21T17:15:29;2.53;;;1.70;;
24897;SDS011;12957;49.434;8.684;2023-02-21T17:17:56;3.20;;;2.00;;
24897;SDS011;12957;49.434;8.684;2023-02-21T17:20:22;1.95;;;1.60;;
24897;SDS011;12957;49.434;8.684;2023-02-21T17:22:47;2.67;;;1.73;;
24897;SDS011;12957;49.434;8.684;2023-02-21T17:25:14;7.25;;;1.73;;
24897;SDS011;12957;49.434;8.684;2023-02-21T17:27:40;1.42;;;1.33;;
24897;SDS011;12957;49.434;8.684;2023-02-21T17:30:05;7.47;;;1.80;;
24897;SDS011;12957;49.434;8.684;2023-02-21T17:32:32;1.75;;;1.65;;
24897;SDS011;12957;49.434;8.684;2023-02-21T17:34:57;5.35;;;1.52;;
24897;SDS011;12957;49.434;8.684;2023-02-21T17:37:23;3.80;;;1.60;;
24897;SDS011;12957;49.434;8.684;2023-02-21T17:39:52;3.08;;;1.88;;
24897;SDS011;12957;49.434;8.684;2023-02-21T17:42:17;2.50;;;1.80;;
24897;SDS011;12957;49.434;8.684;2023-02-21T17:44:43;4.40;;;1.98;;
24897;SDS011;12957;49.434;8.684;2023-02-21T17:47:11;3.40;;;2.03;;
24897;SDS011;12957;49.434;8.684;2023-02-21T17:49:37;1.95;;;1.75;;
24897;SDS011;12957;49.434;8.684;2023-02-21T17:52:02;4.60;;;1.88;;
24897;SDS011;12957;49.434;8.684;2023-02-21T17:54:28;3.42;;;1.90;;
24897;SDS011;12957;49.434;8.684;2023-02-21T17:56:53;14.80;;;6.63;;
24897;SDS011;12957;49.434;8.684;2023-02-21T17:59:19;12.48;;;6.75;;
24897;SDS011;12957;49.434;8.684;2023-02-21T18:01:44;9.73;;;2.60;;
24897;SDS011;12957;49.434;8.684;2023-02-21T18:04:10;4.60;;;3.28;;